Courage — WDE3893 — position and weather

sailwx.info

Track history (hours):
 
Tides and Currents Weather Stations Pressure Air Temp Water Temp Dewpoint Dewpoint Depression Visibility Wind Speed Wind Dir Waves Ship Positions

Courage

Owner: Intrepid Ship Management., jacksonville, FL. More information available from US FCC via Universal Licensing System and Coast Guard Vessel Documentation Center.

Last reported at 2017-Nov-17 12:36 UTC. Time now 2017-Nov-22 03:43 UTC.
Position N 26°20' W 079°45'.

Length 208 m; draft 6.4 m.

Type: Towing. MMSI: 368413000.

Date/timePositionNaut miles runAvg speedWind from/ knotsBaromVisibWave heightAir tempDewpointWater temp
2017-Nov-17 12:36N 26°20' W 079°45'713.6
2017-Nov-17 12:07N 26°13' W 079°45'213.5
2017-Nov-17 12:00N 26°12' W 079°44'713.4
2017-Nov-17 11:30N 26°05' W 079°44'712.9
2017-Nov-17 10:59N 25°58' W 079°44'613.1
2017-Nov-17 10:30N 25°53' W 079°48'713.2
2017-Nov-17 10:00N 25°47' W 079°50'713.4
2017-Nov-17 09:30N 25°40' W 079°53'713.8
2017-Nov-17 09:00N 25°33' W 079°54'  
Track history (hours):
 
Tides and Currents Weather Stations Pressure Air Temp Water Temp Dewpoint Dewpoint Depression Visibility Wind Speed Wind Dir Waves Ship Positions

Courage

Owner: Intrepid Ship Management., jacksonville, FL. More information available from US FCC via Universal Licensing System and Coast Guard Vessel Documentation Center.

Last reported at 2017-Nov-17 12:36 UTC. Time now 2017-Nov-22 03:43 UTC.
Position N 26°20' W 079°45'.

Length 208 m; draft 6.4 m.

Type: Towing. MMSI: 368413000.

Date/timePositionNaut miles runAvg speedWind from/ knotsBaromVisibWave heightAir tempDewpointWater temp
2017-Nov-17 12:36N 26°20' W 079°45'713.6
2017-Nov-17 12:07N 26°13' W 079°45'213.5
2017-Nov-17 12:00N 26°12' W 079°44'713.4
2017-Nov-17 11:30N 26°05' W 079°44'712.9
2017-Nov-17 10:59N 25°58' W 079°44'613.1
2017-Nov-17 10:30N 25°53' W 079°48'713.2
2017-Nov-17 10:00N 25°47' W 079°50'713.4
2017-Nov-17 09:30N 25°40' W 079°53'713.8
2017-Nov-17 09:00N 25°33' W 079°54'  

Dump ship's entire track history